createdAt,value
2022-08-20T00:00:25.794Z,3.33
2022-08-20T00:02:56.445Z,4.60
2022-08-20T00:05:27.345Z,4.07
2022-08-20T00:07:55.513Z,7.03
2022-08-20T00:10:24.989Z,3.55
2022-08-20T00:12:53.062Z,5.05
2022-08-20T00:15:24.194Z,5.45
2022-08-20T00:17:54.374Z,9.47
2022-08-20T00:20:25.127Z,6.20
2022-08-20T00:22:53.373Z,4.18
2022-08-20T00:25:21.305Z,5.35
2022-08-20T00:27:50.574Z,5.22
2022-08-20T00:30:18.821Z,6.22
2022-08-20T00:32:49.096Z,7.28
2022-08-20T00:35:18.420Z,4.72
2022-08-20T00:37:46.444Z,5.07
2022-08-20T00:40:22.462Z,5.70
2022-08-20T00:42:57.477Z,5.22
2022-08-20T00:45:26.181Z,5.72
2022-08-20T00:47:54.394Z,4.30
2022-08-20T00:50:27.267Z,6.03
2022-08-20T00:52:55.856Z,5.25
2022-08-20T00:55:31.383Z,5.50
2022-08-20T00:58:05.362Z,4.53
2022-08-20T01:00:37.697Z,4.35
2022-08-20T01:03:09.753Z,4.30
2022-08-20T01:05:38.653Z,6.05
2022-08-20T01:08:07.202Z,5.03
2022-08-20T01:10:39.645Z,4.57
2022-08-20T01:13:12.555Z,4.97
2022-08-20T01:15:43.547Z,5.78
2022-08-20T01:18:14.484Z,4.13
2022-08-20T01:20:46.694Z,4.32
2022-08-20T01:23:30.488Z,6.13
2022-08-20T01:26:06.059Z,5.22
2022-08-20T01:28:40.432Z,4.75
2022-08-20T01:31:10.280Z,6.00
2022-08-20T01:33:39.125Z,5.28
2022-08-20T01:36:08.247Z,5.95
2022-08-20T01:38:36.763Z,5.03
2022-08-20T01:41:28.247Z,5.15
2022-08-20T01:43:58.284Z,7.50
2022-08-20T01:46:29.090Z,4.22
2022-08-20T01:48:59.715Z,5.38
2022-08-20T01:51:29.372Z,6.18
2022-08-20T01:54:00.791Z,5.20
2022-08-20T01:56:32.627Z,4.88
2022-08-20T01:59:03.254Z,7.35
2022-08-20T02:01:46.512Z,6.25
2022-08-20T02:04:18.730Z,5.82
2022-08-20T02:06:56.262Z,4.53
2022-08-20T02:09:27.059Z,5.63
2022-08-20T02:11:57.577Z,6.63
2022-08-20T02:14:27.043Z,7.53
2022-08-20T02:16:55.836Z,6.13
2022-08-20T02:19:27.608Z,5.40
2022-08-20T02:21:58.717Z,5.38
2022-08-20T02:24:26.747Z,5.23
2022-08-20T02:26:56.153Z,5.50
2022-08-20T02:29:26.150Z,5.55
2022-08-20T02:32:32.190Z,4.50
2022-08-20T02:34:43.327Z,3.88
2022-08-20T02:37:13.504Z,5.35
2022-08-20T02:39:42.121Z,4.47
2022-08-20T02:42:12.281Z,5.40
2022-08-20T02:44:40.573Z,3.75
2022-08-20T02:47:08.646Z,3.88
2022-08-20T02:49:36.749Z,5.10
2022-08-20T02:52:05.084Z,6.85
2022-08-20T02:54:33.110Z,4.28
2022-08-20T02:57:02.301Z,4.85
2022-08-20T02:59:31.735Z,4.63
2022-08-20T03:02:00.998Z,3.65
2022-08-20T03:04:29.571Z,4.43
2022-08-20T03:06:58.281Z,5.13
2022-08-20T03:09:26.344Z,4.95
2022-08-20T03:11:54.449Z,5.32
2022-08-20T03:14:22.522Z,5.28
2022-08-20T03:16:52.256Z,6.55
2022-08-20T03:19:20.430Z,3.60
2022-08-20T03:21:48.341Z,4.90
2022-08-20T03:24:16.594Z,4.72
2022-08-20T03:26:44.545Z,5.60
2022-08-20T03:29:12.897Z,4.80
2022-08-20T03:31:41.466Z,3.85
2022-08-20T03:34:10.827Z,5.43
2022-08-20T03:36:38.805Z,4.97
2022-08-20T03:39:11.608Z,5.40
2022-08-20T03:41:39.909Z,3.72
2022-08-20T03:44:07.931Z,3.85
2022-08-20T03:46:36.200Z,6.47
2022-08-20T03:49:04.918Z,3.25
2022-08-20T03:51:34.416Z,3.80
2022-08-20T03:54:22.178Z,4.65
2022-08-20T03:56:50.074Z,5.32
2022-08-20T03:59:18.142Z,3.60
2022-08-20T04:01:47.002Z,5.15
2022-08-20T04:04:16.180Z,4.03
2022-08-20T04:06:47.494Z,5.68
2022-08-20T04:09:15.985Z,5.50
2022-08-20T04:11:47.042Z,4.25
2022-08-20T04:14:18.681Z,5.32
2022-08-20T04:16:49.072Z,3.95
2022-08-20T04:19:17.467Z,3.67
2022-08-20T04:21:48.873Z,5.15
2022-08-20T04:24:22.507Z,4.03
2022-08-20T04:27:02.754Z,4.32
2022-08-20T04:29:32.380Z,3.80
2022-08-20T04:32:02.714Z,3.83
2022-08-20T04:34:34.638Z,5.05
2022-08-20T04:37:05.053Z,4.72
2022-08-20T04:39:33.418Z,5.15
2022-08-20T04:42:01.360Z,6.32
2022-08-20T04:44:29.264Z,4.65
2022-08-20T04:46:57.993Z,4.45
2022-08-20T04:49:26.431Z,3.92
2022-08-20T04:51:54.852Z,6.50
2022-08-20T04:54:24.096Z,3.60
2022-08-20T04:56:52.442Z,4.18
2022-08-20T04:59:20.616Z,4.60
2022-08-20T05:01:48.563Z,4.25
2022-08-20T05:04:16.513Z,4.85
2022-08-20T05:06:45.241Z,3.45
2022-08-20T05:09:13.196Z,5.90
2022-08-20T05:11:42.489Z,5.38
2022-08-20T05:14:11.131Z,5.30
2022-08-20T05:16:40.840Z,4.97
2022-08-20T05:19:10.643Z,6.70
2022-08-20T05:21:39.466Z,4.82
2022-08-20T05:24:08.425Z,6.57
2022-08-20T05:26:36.825Z,6.97
2022-08-20T05:29:06.930Z,5.30
2022-08-20T05:31:36.128Z,5.28
2022-08-20T05:34:09.767Z,4.85
2022-08-20T05:36:40.100Z,4.78
2022-08-20T05:39:08.888Z,4.50
2022-08-20T05:41:37.776Z,6.60
2022-08-20T05:44:10.671Z,5.22
2022-08-20T05:46:40.822Z,4.35
2022-08-20T05:49:09.129Z,5.65
2022-08-20T05:51:37.879Z,5.25
2022-08-20T05:54:07.067Z,5.47
2022-08-20T05:56:35.292Z,3.30
2022-08-20T05:59:05.017Z,3.42
2022-08-20T06:01:36.353Z,2.83
2022-08-20T06:04:22.591Z,4.60
2022-08-20T06:06:51.850Z,4.10
2022-08-20T06:09:30.767Z,4.85
2022-08-20T06:12:01.073Z,2.40
2022-08-20T06:14:29.206Z,2.90
2022-08-20T06:17:04.045Z,3.42
2022-08-20T06:19:33.250Z,4.25
2022-08-20T06:22:01.380Z,3.58
2022-08-20T06:24:29.414Z,3.45
2022-08-20T06:26:58.681Z,4.47
2022-08-20T06:29:27.222Z,4.35
2022-08-20T06:31:55.809Z,3.58
2022-08-20T06:34:28.406Z,4.15
2022-08-20T06:37:00.016Z,4.70
2022-08-20T06:39:29.634Z,2.20
2022-08-20T06:41:58.705Z,3.22
2022-08-20T06:44:28.508Z,3.42
2022-08-20T06:47:01.034Z,3.78
2022-08-20T06:49:34.188Z,3.47
2022-08-20T06:52:03.807Z,3.53
2022-08-20T06:54:32.789Z,2.72
2022-08-20T06:57:00.994Z,3.42
2022-08-20T06:59:28.821Z,3.53
2022-08-20T07:01:56.998Z,6.80
2022-08-20T07:04:25.853Z,3.78
2022-08-20T07:06:57.580Z,4.15
2022-08-20T07:09:26.667Z,5.20
2022-08-20T07:11:54.781Z,3.10
2022-08-20T07:14:23.050Z,2.90
2022-08-20T07:16:51.014Z,4.22
2022-08-20T07:19:18.984Z,3.20
2022-08-20T07:21:47.609Z,10.27
2022-08-20T07:24:16.943Z,4.28
2022-08-20T07:26:44.961Z,4.53
2022-08-20T07:29:12.948Z,5.18
2022-08-20T07:31:58.186Z,7.30
2022-08-20T07:34:26.116Z,6.57
2022-08-20T07:36:54.181Z,6.32
2022-08-20T07:39:24.285Z,6.88
2022-08-20T07:42:03.276Z,8.93
2022-08-20T07:44:31.482Z,11.30
2022-08-20T07:47:00.275Z,8.88
2022-08-20T07:49:28.335Z,4.70
2022-08-20T07:51:56.239Z,6.30
2022-08-20T07:54:25.613Z,5.95
2022-08-20T07:57:02.533Z,5.47
2022-08-20T07:59:31.014Z,6.03
2022-08-20T08:01:59.288Z,6.68
2022-08-20T08:04:27.330Z,7.32
2022-08-20T08:06:59.996Z,4.25
2022-08-20T08:09:29.912Z,6.18
2022-08-20T08:12:00.764Z,8.55
2022-08-20T08:14:31.964Z,7.45
2022-08-20T08:17:04.511Z,6.03
2022-08-20T08:19:38.716Z,6.22
2022-08-20T08:22:11.649Z,8.57
2022-08-20T08:24:43.348Z,5.63
2022-08-20T08:27:25.637Z,7.82
2022-08-20T08:29:54.557Z,7.90
2022-08-20T08:32:22.509Z,6.95
2022-08-20T08:34:50.624Z,5.25
2022-08-20T08:37:18.580Z,7.82
2022-08-20T08:39:47.941Z,5.93
2022-08-20T08:42:27.575Z,7.60
2022-08-20T08:44:55.667Z,4.97
2022-08-20T08:47:28.130Z,5.63
2022-08-20T08:49:57.407Z,8.25
2022-08-20T08:52:29.880Z,8.02
2022-08-20T08:55:10.972Z,9.55
2022-08-20T08:57:39.031Z,6.43
2022-08-20T09:00:12.156Z,4.80
2022-08-20T09:02:42.505Z,7.78
2022-08-20T09:05:17.390Z,6.30
2022-08-20T09:07:49.418Z,5.25
2022-08-20T09:10:22.975Z,5.10
2022-08-20T09:12:52.316Z,7.35
2022-08-20T09:15:21.289Z,9.52
2022-08-20T09:17:49.296Z,6.00
2022-08-20T09:20:18.249Z,7.90
2022-08-20T09:22:46.234Z,6.88
2022-08-20T09:25:15.960Z,9.20
2022-08-20T09:27:45.340Z,5.20
2022-08-20T09:30:16.939Z,5.72
2022-08-20T09:32:46.505Z,5.88
2022-08-20T09:35:15.472Z,9.00
2022-08-20T09:37:43.931Z,6.88
2022-08-20T09:40:13.757Z,5.43
2022-08-20T09:42:45.409Z,7.38
2022-08-20T09:45:14.290Z,5.20
2022-08-20T09:47:54.979Z,6.88
2022-08-20T09:50:25.158Z,7.10
2022-08-20T09:52:55.341Z,7.45
2022-08-20T09:55:29.478Z,9.23
2022-08-20T09:57:59.895Z,6.93
2022-08-20T10:00:28.068Z,5.40
2022-08-20T10:02:56.016Z,5.80
2022-08-20T10:05:24.309Z,6.32
2022-08-20T10:07:52.222Z,4.05
2022-08-20T10:10:20.270Z,5.28
2022-08-20T10:12:52.814Z,9.90
2022-08-20T10:15:23.972Z,10.52
2022-08-20T10:17:51.908Z,8.75
2022-08-20T10:20:20.085Z,6.75
2022-08-20T10:22:48.095Z,8.15
2022-08-20T10:25:16.795Z,6.60
2022-08-20T10:27:45.054Z,5.72
2022-08-20T10:30:13.504Z,8.50
2022-08-20T10:32:43.028Z,8.52
2022-08-20T10:35:11.102Z,7.80
2022-08-20T10:37:39.207Z,7.38
2022-08-20T10:40:08.866Z,9.85
2022-08-20T10:42:41.811Z,6.82
2022-08-20T10:45:11.341Z,7.07
2022-08-20T10:47:39.873Z,5.25
2022-08-20T10:50:12.575Z,6.53
2022-08-20T10:52:40.554Z,5.80
2022-08-20T10:55:09.424Z,7.38
2022-08-20T10:57:39.374Z,5.95
2022-08-20T11:00:09.246Z,4.53
2022-08-20T11:02:37.423Z,6.30
2022-08-20T11:05:12.974Z,6.95
2022-08-20T11:07:53.650Z,6.72
2022-08-20T11:10:28.981Z,8.43
2022-08-20T11:12:58.452Z,7.90
2022-08-20T11:15:26.567Z,10.95
2022-08-20T11:17:55.352Z,7.28
2022-08-20T11:20:26.036Z,5.28
2022-08-20T11:22:56.196Z,9.98
2022-08-20T11:25:24.289Z,9.38
2022-08-20T11:27:53.712Z,10.05
2022-08-20T11:30:24.534Z,9.18
2022-08-20T11:32:52.599Z,8.60
2022-08-20T11:38:11.487Z,6.20
2022-08-20T11:40:39.504Z,6.95
2022-08-20T11:43:16.296Z,5.60
2022-08-20T11:45:46.425Z,8.93
2022-08-20T11:48:14.713Z,7.80
2022-08-20T11:50:42.747Z,4.28
2022-08-20T11:53:12.077Z,9.88
2022-08-20T11:55:40.631Z,3.47
2022-08-20T11:58:08.603Z,6.13
2022-08-20T12:00:37.465Z,5.57
2022-08-20T12:03:08.902Z,5.88
2022-08-20T12:05:37.751Z,6.57
2022-08-20T12:08:06.367Z,3.97
2022-08-20T12:10:36.496Z,3.88
2022-08-20T12:13:04.959Z,6.57
2022-08-20T12:15:33.689Z,4.57
2022-08-20T12:18:02.235Z,4.75
2022-08-20T12:20:30.134Z,3.60
2022-08-20T12:22:58.986Z,5.07
2022-08-20T12:25:27.469Z,5.03
2022-08-20T12:27:57.040Z,6.30
2022-08-20T12:30:25.787Z,4.70
2022-08-20T12:32:53.793Z,5.88
2022-08-20T12:35:22.063Z,8.10
2022-08-20T12:37:50.127Z,6.70
2022-08-20T12:40:31.845Z,8.75
2022-08-20T12:43:02.678Z,6.40
2022-08-20T12:45:31.567Z,6.15
2022-08-20T12:48:03.635Z,9.27
2022-08-20T12:53:00.614Z,8.75
2022-08-20T12:55:28.661Z,11.05
2022-08-20T12:57:59.504Z,8.07
2022-08-20T13:00:31.151Z,6.90
2022-08-20T13:03:01.598Z,8.55
2022-08-20T13:05:31.118Z,9.15
2022-08-20T13:07:59.424Z,10.68
2022-08-20T13:10:31.157Z,10.02
2022-08-20T13:13:01.796Z,8.00
2022-08-20T13:15:31.792Z,8.98
2022-08-20T13:18:03.400Z,9.30
2022-08-20T13:20:34.605Z,8.18
2022-08-20T13:23:03.422Z,13.27
2022-08-20T13:25:32.037Z,17.70
2022-08-20T13:28:03.888Z,11.45
2022-08-20T13:30:34.268Z,7.65
2022-08-20T13:33:02.239Z,8.20
2022-08-20T13:35:30.417Z,8.43
2022-08-20T13:37:58.495Z,6.22
2022-08-20T13:40:26.941Z,11.38
2022-08-20T13:42:55.048Z,6.88
2022-08-20T13:45:23.104Z,5.43
2022-08-20T13:47:55.711Z,6.03
2022-08-20T13:50:26.141Z,6.03
2022-08-20T13:52:54.315Z,5.75
2022-08-20T13:55:26.187Z,6.75
2022-08-20T13:57:55.336Z,6.68
2022-08-20T14:00:31.955Z,5.60
2022-08-20T14:03:02.386Z,5.60
2022-08-20T14:05:30.817Z,4.43
2022-08-20T14:08:07.374Z,6.25
2022-08-20T14:10:35.939Z,5.07
2022-08-20T14:13:06.668Z,5.15
2022-08-20T14:15:35.552Z,5.88
2022-08-20T14:18:05.081Z,2.88
2022-08-20T14:20:35.329Z,4.88
2022-08-20T14:23:07.006Z,4.85
2022-08-20T14:25:35.454Z,5.25
2022-08-20T14:28:11.241Z,7.03
2022-08-20T14:30:39.980Z,7.05
2022-08-20T14:33:09.436Z,4.40
2022-08-20T14:35:37.653Z,8.25
2022-08-20T14:38:06.148Z,8.20
2022-08-20T14:40:35.648Z,7.10
2022-08-20T14:43:03.780Z,6.43
2022-08-20T14:45:32.182Z,4.30
2022-08-20T14:48:00.968Z,6.15
2022-08-20T14:50:33.432Z,4.28
2022-08-20T14:53:01.896Z,7.13
2022-08-20T14:55:33.229Z,6.22
2022-08-20T14:58:01.218Z,4.65
2022-08-20T15:00:33.831Z,5.82
2022-08-20T15:03:02.005Z,5.70
2022-08-20T15:05:31.523Z,4.00
2022-08-20T15:07:59.660Z,6.78
2022-08-20T15:10:30.762Z,4.43
2022-08-20T15:12:59.241Z,3.15
2022-08-20T15:15:27.858Z,4.43
2022-08-20T15:17:57.999Z,3.60
2022-08-20T15:20:28.989Z,5.25
2022-08-20T15:22:58.449Z,4.85
2022-08-20T15:25:36.939Z,5.90
2022-08-20T15:28:07.074Z,5.38
2022-08-20T15:30:35.118Z,3.45
2022-08-20T15:33:03.283Z,4.43
2022-08-20T15:35:31.429Z,4.35
2022-08-20T15:38:00.922Z,5.65
2022-08-20T15:40:31.669Z,3.72
2022-08-20T15:43:00.934Z,2.65
2022-08-20T15:45:29.225Z,6.45
2022-08-20T15:48:03.469Z,8.40
2022-08-20T15:50:55.504Z,4.55
2022-08-20T15:53:29.933Z,6.03
2022-08-20T15:56:05.562Z,4.20
2022-08-20T15:58:40.610Z,3.97
2022-08-20T16:01:24.585Z,5.97
2022-08-20T16:04:08.752Z,7.15
2022-08-20T16:06:37.685Z,7.03
2022-08-20T16:09:24.121Z,5.97
2022-08-20T16:11:59.931Z,7.15
2022-08-20T16:14:31.514Z,8.43
2022-08-20T16:17:06.226Z,7.63
2022-08-20T16:19:45.906Z,8.23
2022-08-20T16:22:18.324Z,5.82
2022-08-20T16:24:47.896Z,3.97
2022-08-20T16:27:25.633Z,4.82
2022-08-20T16:29:58.940Z,9.88
2022-08-20T16:32:37.374Z,7.22
2022-08-20T16:35:18.967Z,5.47
2022-08-20T16:37:56.592Z,6.07
2022-08-20T16:40:28.634Z,4.43
2022-08-20T16:45:29.908Z,4.78
2022-08-20T16:48:02.399Z,5.75
2022-08-20T16:50:35.240Z,9.00
2022-08-20T16:53:03.300Z,6.72
2022-08-20T16:55:32.577Z,9.57
2022-08-20T16:58:01.459Z,9.98
2022-08-20T17:00:35.382Z,7.25
2022-08-20T17:03:05.602Z,8.40
2022-08-20T17:05:49.780Z,6.90
2022-08-20T17:08:21.102Z,7.00
2022-08-20T17:11:00.874Z,6.22
2022-08-20T17:13:31.289Z,5.97
2022-08-20T17:16:01.554Z,8.48
2022-08-20T17:18:33.477Z,8.15
2022-08-20T17:21:02.949Z,9.18
2022-08-20T17:23:49.174Z,5.20
2022-08-20T17:26:24.325Z,9.95
2022-08-20T17:28:54.733Z,9.43
2022-08-20T17:31:37.460Z,7.93
2022-08-20T17:34:15.381Z,6.55
2022-08-20T17:36:51.178Z,4.88
2022-08-20T17:39:22.011Z,5.80
2022-08-20T17:41:56.051Z,6.10
2022-08-20T17:44:29.289Z,4.90
2022-08-20T17:47:00.067Z,7.82
2022-08-20T17:49:35.156Z,6.03
2022-08-20T17:52:07.054Z,5.93
2022-08-20T17:54:39.900Z,8.43
2022-08-20T17:57:14.246Z,5.22
2022-08-20T18:00:00.695Z,6.45
2022-08-20T18:02:31.704Z,9.80
2022-08-20T18:04:59.739Z,6.78
2022-08-20T18:07:32.249Z,7.07
2022-08-20T18:10:07.671Z,8.82
2022-08-20T18:12:42.587Z,5.18
2022-08-20T18:15:17.828Z,8.68
2022-08-20T18:18:16.724Z,5.78
2022-08-20T18:21:11.740Z,7.22
2022-08-20T18:23:47.810Z,4.65
2022-08-20T18:26:21.066Z,6.53
2022-08-20T18:28:57.209Z,8.95
2022-08-20T18:31:28.336Z,4.03
2022-08-20T18:33:56.800Z,9.40
2022-08-20T18:36:27.882Z,9.10
2022-08-20T18:39:05.100Z,5.70
2022-08-20T18:41:35.899Z,4.85
2022-08-20T18:44:09.140Z,7.15
2022-08-20T18:46:37.995Z,5.68
2022-08-20T18:49:08.540Z,4.90
2022-08-20T18:51:43.769Z,6.82
2022-08-20T18:54:24.500Z,6.65
2022-08-20T18:57:04.161Z,4.93
2022-08-20T18:59:39.094Z,5.93
2022-08-20T19:02:18.587Z,6.40
2022-08-20T19:05:02.241Z,5.68
2022-08-20T19:07:45.816Z,6.75
2022-08-20T19:10:40.786Z,6.30
2022-08-20T19:13:47.092Z,7.93
2022-08-20T19:16:21.134Z,4.80
2022-08-20T19:18:53.154Z,8.32
2022-08-20T19:21:25.655Z,5.40
2022-08-20T19:23:57.156Z,4.82
2022-08-20T19:26:28.458Z,5.82
2022-08-20T19:28:59.926Z,6.13
2022-08-20T19:31:32.796Z,4.43
2022-08-20T19:34:19.968Z,4.63
2022-08-20T19:36:55.692Z,5.93
2022-08-20T19:39:25.592Z,3.40
2022-08-20T19:41:57.715Z,7.70
2022-08-20T19:44:31.325Z,6.13
2022-08-20T19:47:02.128Z,6.18
2022-08-20T19:49:42.597Z,4.78
2022-08-20T19:52:22.832Z,4.60
2022-08-20T19:54:54.711Z,6.85
2022-08-20T19:57:24.104Z,3.58
2022-08-20T19:59:57.181Z,3.92
2022-08-20T20:02:29.102Z,6.70
2022-08-20T20:04:58.026Z,10.32
2022-08-20T20:07:37.065Z,4.90
2022-08-20T20:10:08.418Z,5.03
2022-08-20T20:12:36.534Z,3.20
2022-08-20T20:15:07.595Z,4.75
2022-08-20T20:17:37.745Z,5.47
2022-08-20T20:20:20.756Z,6.35
2022-08-20T20:22:52.441Z,6.40
2022-08-20T20:25:24.567Z,5.00
2022-08-20T20:30:25.826Z,5.75
2022-08-20T20:32:56.306Z,4.65
2022-08-20T20:35:29.012Z,6.38
2022-08-20T20:38:03.178Z,4.13
2022-08-20T20:40:36.121Z,5.63
2022-08-20T20:43:07.114Z,6.28
2022-08-20T20:45:37.715Z,8.88
2022-08-20T20:48:19.740Z,6.65
2022-08-20T20:50:49.253Z,7.07
2022-08-20T20:53:32.287Z,4.55
2022-08-20T20:56:28.713Z,5.40
2022-08-20T20:58:56.996Z,10.52
2022-08-20T21:01:45.801Z,5.20
2022-08-20T21:04:14.607Z,4.88
2022-08-20T21:06:42.506Z,6.03
2022-08-20T21:09:10.554Z,4.80
2022-08-20T21:11:38.538Z,5.78
2022-08-20T21:14:06.710Z,6.15
2022-08-20T21:16:34.902Z,8.52
2022-08-20T21:19:05.574Z,7.13
2022-08-20T21:21:35.520Z,5.38
2022-08-20T21:24:03.642Z,8.00
2022-08-20T21:26:31.928Z,8.85
2022-08-20T21:29:00.019Z,7.38
2022-08-20T21:31:35.386Z,10.52
2022-08-20T21:34:03.452Z,9.10
2022-08-20T21:36:31.333Z,8.40
2022-08-20T21:39:01.817Z,10.02
2022-08-20T21:41:30.436Z,10.27
2022-08-20T21:43:58.727Z,6.28
2022-08-20T21:46:28.733Z,7.28
2022-08-20T21:48:57.397Z,7.78
2022-08-20T21:51:25.479Z,6.93
2022-08-20T21:53:53.499Z,7.00
2022-08-20T21:56:22.966Z,7.75
2022-08-20T21:58:53.116Z,4.40
2022-08-20T22:01:24.888Z,4.57
2022-08-20T22:03:52.807Z,6.68
2022-08-20T22:06:20.794Z,4.05
2022-08-20T22:08:48.707Z,3.85
2022-08-20T22:11:16.686Z,6.35
2022-08-20T22:13:46.932Z,4.30
2022-08-20T22:16:18.439Z,8.95
2022-08-20T22:18:47.880Z,7.28
2022-08-20T22:21:18.912Z,6.03
2022-08-20T22:23:47.334Z,5.20
2022-08-20T22:26:15.426Z,5.85
2022-08-20T22:28:45.246Z,6.38
2022-08-20T22:31:22.356Z,6.03
2022-08-20T22:33:50.366Z,8.60
2022-08-20T22:36:19.038Z,5.00
2022-08-20T22:38:47.737Z,6.82
2022-08-20T22:41:23.959Z,15.10
2022-08-20T22:43:56.458Z,7.38
2022-08-20T22:46:27.323Z,8.02
2022-08-20T22:48:55.767Z,8.55
2022-08-20T22:51:34.665Z,11.27
2022-08-20T22:54:04.668Z,10.65
2022-08-20T22:56:32.874Z,15.55
2022-08-20T22:59:05.151Z,9.77
2022-08-20T23:01:33.263Z,12.95
2022-08-20T23:04:20.537Z,11.73
2022-08-20T23:06:48.596Z,13.27
2022-08-20T23:09:21.019Z,14.07
2022-08-20T23:11:49.345Z,14.18
2022-08-20T23:14:19.044Z,18.85
2022-08-20T23:16:49.131Z,14.40
2022-08-20T23:19:21.657Z,18.25
2022-08-20T23:21:50.128Z,17.25
2022-08-20T23:24:18.342Z,16.70
2022-08-20T23:26:52.386Z,19.55
2022-08-20T23:29:25.858Z,17.33
2022-08-20T23:31:55.018Z,21.10
2022-08-20T23:34:22.937Z,19.50
2022-08-20T23:36:52.463Z,16.10
2022-08-20T23:39:20.894Z,16.13
2022-08-20T23:41:48.991Z,17.27
2022-08-20T23:44:26.112Z,20.52
2022-08-20T23:46:56.915Z,16.38
2022-08-20T23:49:25.416Z,18.75
2022-08-20T23:51:53.352Z,17.10
2022-08-20T23:54:21.367Z,18.10
2022-08-20T23:56:49.551Z,20.08
2022-08-20T23:59:17.934Z,17.23
